sensor_id;sensor_type;location;lat;lon;timestamp;temperature;humidity
23147;DHT22;11742;53.532;-1.478;2023-05-08T00:00:09;21.10;72.60
23147;DHT22;11742;53.532;-1.478;2023-05-08T00:02:53;21.00;72.50
23147;DHT22;11742;53.532;-1.478;2023-05-08T00:05:39;21.00;72.60
23147;DHT22;11742;53.532;-1.478;2023-05-08T00:08:24;20.90;72.50
23147;DHT22;11742;53.532;-1.478;2023-05-08T00:11:08;20.90;72.50
23147;DHT22;11742;53.532;-1.478;2023-05-08T00:13:52;20.80;72.50
23147;DHT22;11742;53.532;-1.478;2023-05-08T00:16:36;20.80;72.60
23147;DHT22;11742;53.532;-1.478;2023-05-08T00:19:20;20.80;72.50
23147;DHT22;11742;53.532;-1.478;2023-05-08T00:22:05;20.70;72.50
23147;DHT22;11742;53.532;-1.478;2023-05-08T00:24:49;20.70;72.60
23147;DHT22;11742;53.532;-1.478;2023-05-08T00:27:33;20.70;72.60
23147;DHT22;11742;53.532;-1.478;2023-05-08T00:30:17;20.60;72.50
23147;DHT22;11742;53.532;-1.478;2023-05-08T00:33:01;20.60;72.60
23147;DHT22;11742;53.532;-1.478;2023-05-08T00:35:46;20.50;72.60
23147;DHT22;11742;53.532;-1.478;2023-05-08T00:38:34;20.50;72.60
23147;DHT22;11742;53.532;-1.478;2023-05-08T00:41:18;20.40;72.60
23147;DHT22;11742;53.532;-1.478;2023-05-08T00:44:02;20.40;72.50
23147;DHT22;11742;53.532;-1.478;2023-05-08T00:46:47;20.40;72.50
23147;DHT22;11742;53.532;-1.478;2023-05-08T00:49:31;20.30;72.60
23147;DHT22;11742;53.532;-1.478;2023-05-08T00:52:17;20.30;72.60
23147;DHT22;11742;53.532;-1.478;2023-05-08T00:55:04;20.30;72.60
23147;DHT22;11742;53.532;-1.478;2023-05-08T00:57:48;20.30;72.60
23147;DHT22;11742;53.532;-1.478;2023-05-08T01:00:32;20.20;72.60
23147;DHT22;11742;53.532;-1.478;2023-05-08T01:03:17;20.20;72.70
23147;DHT22;11742;53.532;-1.478;2023-05-08T01:06:02;20.10;72.60
23147;DHT22;11742;53.532;-1.478;2023-05-08T01:08:46;20.10;72.80
23147;DHT22;11742;53.532;-1.478;2023-05-08T01:11:40;20.10;72.80
23147;DHT22;11742;53.532;-1.478;2023-05-08T01:14:41;20.00;72.80
23147;DHT22;11742;53.532;-1.478;2023-05-08T01:43:27;19.70;73.10
23147;DHT22;11742;53.532;-1.478;2023-05-08T01:46:13;19.60;73.10
23147;DHT22;11742;53.532;-1.478;2023-05-08T01:49:07;19.60;73.20
23147;DHT22;11742;53.532;-1.478;2023-05-08T01:51:59;19.60;73.20
23147;DHT22;11742;53.532;-1.478;2023-05-08T01:54:53;19.60;73.20
23147;DHT22;11742;53.532;-1.478;2023-05-08T01:57:41;19.50;73.20
23147;DHT22;11742;53.532;-1.478;2023-05-08T02:00:26;19.50;73.30
23147;DHT22;11742;53.532;-1.478;2023-05-08T02:03:14;19.50;73.30
23147;DHT22;11742;53.532;-1.478;2023-05-08T02:05:59;19.40;73.30
23147;DHT22;11742;53.532;-1.478;2023-05-08T02:08:44;19.40;73.30
23147;DHT22;11742;53.532;-1.478;2023-05-08T02:11:29;19.40;73.40
23147;DHT22;11742;53.532;-1.478;2023-05-08T02:14:15;19.40;73.50
23147;DHT22;11742;53.532;-1.478;2023-05-08T02:17:01;19.30;73.50
23147;DHT22;11742;53.532;-1.478;2023-05-08T02:19:46;19.30;73.60
23147;DHT22;11742;53.532;-1.478;2023-05-08T02:22:32;19.30;73.60
23147;DHT22;11742;53.532;-1.478;2023-05-08T02:25:17;19.30;73.70
23147;DHT22;11742;53.532;-1.478;2023-05-08T02:28:02;19.20;73.60
23147;DHT22;11742;53.532;-1.478;2023-05-08T02:30:46;19.20;73.60
23147;DHT22;11742;53.532;-1.478;2023-05-08T02:33:31;19.20;73.60
23147;DHT22;11742;53.532;-1.478;2023-05-08T02:36:17;19.20;73.60
23147;DHT22;11742;53.532;-1.478;2023-05-08T02:39:02;19.10;73.60
23147;DHT22;11742;53.532;-1.478;2023-05-08T02:41:46;19.10;73.60
23147;DHT22;11742;53.532;-1.478;2023-05-08T02:44:31;19.10;73.70
23147;DHT22;11742;53.532;-1.478;2023-05-08T02:50:02;19.10;73.80
23147;DHT22;11742;53.532;-1.478;2023-05-08T02:52:47;19.00;73.70
23147;DHT22;11742;53.532;-1.478;2023-05-08T02:58:23;19.00;73.70
23147;DHT22;11742;53.532;-1.478;2023-05-08T03:01:20;19.00;73.70
23147;DHT22;11742;53.532;-1.478;2023-05-08T03:04:08;18.90;73.60
23147;DHT22;11742;53.532;-1.478;2023-05-08T03:06:55;18.90;73.60
23147;DHT22;11742;53.532;-1.478;2023-05-08T03:09:46;18.90;73.70
23147;DHT22;11742;53.532;-1.478;2023-05-08T03:12:31;18.90;73.70
23147;DHT22;11742;53.532;-1.478;2023-05-08T03:15:23;18.80;73.70
23147;DHT22;11742;53.532;-1.478;2023-05-08T03:18:19;18.80;73.80
23147;DHT22;11742;53.532;-1.478;2023-05-08T03:21:04;18.80;73.80
23147;DHT22;11742;53.532;-1.478;2023-05-08T03:23:50;18.70;73.80
23147;DHT22;11742;53.532;-1.478;2023-05-08T03:26:35;18.70;73.80
23147;DHT22;11742;53.532;-1.478;2023-05-08T03:29:19;18.70;73.80
23147;DHT22;11742;53.532;-1.478;2023-05-08T03:32:04;18.70;73.90
23147;DHT22;11742;53.532;-1.478;2023-05-08T03:34:48;18.70;73.90
23147;DHT22;11742;53.532;-1.478;2023-05-08T03:37:34;18.70;73.90
23147;DHT22;11742;53.532;-1.478;2023-05-08T03:40:18;18.60;73.90
23147;DHT22;11742;53.532;-1.478;2023-05-08T03:43:06;18.60;73.80
23147;DHT22;11742;53.532;-1.478;2023-05-08T03:45:51;18.60;73.90
23147;DHT22;11742;53.532;-1.478;2023-05-08T03:48:35;18.60;73.90
23147;DHT22;11742;53.532;-1.478;2023-05-08T03:51:19;18.60;73.90
23147;DHT22;11742;53.532;-1.478;2023-05-08T03:54:04;18.50;73.90
23147;DHT22;11742;53.532;-1.478;2023-05-08T03:56:48;18.50;74.00
23147;DHT22;11742;53.532;-1.478;2023-05-08T04:13:59;18.40;73.90
23147;DHT22;11742;53.532;-1.478;2023-05-08T04:16:47;18.40;73.90
23147;DHT22;11742;53.532;-1.478;2023-05-08T04:19:32;18.30;73.90
23147;DHT22;11742;53.532;-1.478;2023-05-08T04:22:18;18.30;73.90
23147;DHT22;11742;53.532;-1.478;2023-05-08T04:25:04;18.30;74.00
23147;DHT22;11742;53.532;-1.478;2023-05-08T04:27:49;18.30;74.00
23147;DHT22;11742;53.532;-1.478;2023-05-08T04:30:34;18.30;74.00
23147;DHT22;11742;53.532;-1.478;2023-05-08T04:33:18;18.20;74.00
23147;DHT22;11742;53.532;-1.478;2023-05-08T04:36:02;18.20;74.00
23147;DHT22;11742;53.532;-1.478;2023-05-08T04:38:46;18.20;74.00
23147;DHT22;11742;53.532;-1.478;2023-05-08T04:41:30;18.20;74.10
23147;DHT22;11742;53.532;-1.478;2023-05-08T04:44:15;18.10;74.00
23147;DHT22;11742;53.532;-1.478;2023-05-08T04:47:00;18.20;74.00
23147;DHT22;11742;53.532;-1.478;2023-05-08T04:49:44;18.10;74.00
23147;DHT22;11742;53.532;-1.478;2023-05-08T04:52:29;18.10;74.10
23147;DHT22;11742;53.532;-1.478;2023-05-08T04:55:13;18.10;74.10
23147;DHT22;11742;53.532;-1.478;2023-05-08T04:57:57;18.10;74.10
23147;DHT22;11742;53.532;-1.478;2023-05-08T05:00:41;18.10;74.20
23147;DHT22;11742;53.532;-1.478;2023-05-08T05:03:25;18.10;74.20
23147;DHT22;11742;53.532;-1.478;2023-05-08T05:06:09;18.00;74.20
23147;DHT22;11742;53.532;-1.478;2023-05-08T05:08:54;18.00;74.30
23147;DHT22;11742;53.532;-1.478;2023-05-08T05:11:38;18.00;74.30
23147;DHT22;11742;53.532;-1.478;2023-05-08T05:14:22;18.00;74.30
23147;DHT22;11742;53.532;-1.478;2023-05-08T05:17:06;18.00;74.40
23147;DHT22;11742;53.532;-1.478;2023-05-08T05:19:51;17.90;74.40
23147;DHT22;11742;53.532;-1.478;2023-05-08T05:22:36;17.90;74.50
23147;DHT22;11742;53.532;-1.478;2023-05-08T05:25:20;17.90;74.60
23147;DHT22;11742;53.532;-1.478;2023-05-08T05:28:04;17.90;74.60
23147;DHT22;11742;53.532;-1.478;2023-05-08T05:30:48;17.90;74.70
23147;DHT22;11742;53.532;-1.478;2023-05-08T05:33:32;17.90;74.80
23147;DHT22;11742;53.532;-1.478;2023-05-08T05:36:17;17.90;74.80
23147;DHT22;11742;53.532;-1.478;2023-05-08T05:39:01;17.90;74.80
23147;DHT22;11742;53.532;-1.478;2023-05-08T05:41:46;17.90;75.80
23147;DHT22;11742;53.532;-1.478;2023-05-08T05:44:30;17.90;74.90
23147;DHT22;11742;53.532;-1.478;2023-05-08T05:47:14;17.90;74.90
23147;DHT22;11742;53.532;-1.478;2023-05-08T05:49:58;17.90;74.90
23147;DHT22;11742;53.532;-1.478;2023-05-08T05:52:43;17.90;74.90
23147;DHT22;11742;53.532;-1.478;2023-05-08T05:55:27;17.90;75.00
23147;DHT22;11742;53.532;-1.478;2023-05-08T05:58:11;17.90;74.80
23147;DHT22;11742;53.532;-1.478;2023-05-08T06:00:56;17.90;74.80
23147;DHT22;11742;53.532;-1.478;2023-05-08T06:03:41;17.90;74.70
23147;DHT22;11742;53.532;-1.478;2023-05-08T06:06:25;17.90;74.80
23147;DHT22;11742;53.532;-1.478;2023-05-08T06:09:09;17.90;74.80
23147;DHT22;11742;53.532;-1.478;2023-05-08T06:11:53;17.90;75.00
23147;DHT22;11742;53.532;-1.478;2023-05-08T06:14:38;17.90;74.90
23147;DHT22;11742;53.532;-1.478;2023-05-08T06:17:22;17.90;74.90
23147;DHT22;11742;53.532;-1.478;2023-05-08T06:20:07;17.90;74.90
23147;DHT22;11742;53.532;-1.478;2023-05-08T06:22:51;17.90;75.00
23147;DHT22;11742;53.532;-1.478;2023-05-08T06:25:35;17.80;75.00
23147;DHT22;11742;53.532;-1.478;2023-05-08T06:28:19;17.90;75.10
23147;DHT22;11742;53.532;-1.478;2023-05-08T06:31:05;17.80;74.90
23147;DHT22;11742;53.532;-1.478;2023-05-08T06:33:49;17.90;75.00
23147;DHT22;11742;53.532;-1.478;2023-05-08T06:36:33;17.90;75.00
23147;DHT22;11742;53.532;-1.478;2023-05-08T06:39:19;17.80;75.00
23147;DHT22;11742;53.532;-1.478;2023-05-08T06:42:03;17.80;75.10
23147;DHT22;11742;53.532;-1.478;2023-05-08T06:44:50;17.90;75.20
23147;DHT22;11742;53.532;-1.478;2023-05-08T06:47:36;17.80;75.50
23147;DHT22;11742;53.532;-1.478;2023-05-08T06:50:20;17.80;75.40
23147;DHT22;11742;53.532;-1.478;2023-05-08T06:53:05;17.90;75.40
23147;DHT22;11742;53.532;-1.478;2023-05-08T06:55:50;17.90;75.50
23147;DHT22;11742;53.532;-1.478;2023-05-08T06:58:34;17.80;75.50
23147;DHT22;11742;53.532;-1.478;2023-05-08T07:01:21;17.90;75.70
23147;DHT22;11742;53.532;-1.478;2023-05-08T07:04:06;17.90;75.70
23147;DHT22;11742;53.532;-1.478;2023-05-08T07:06:50;17.90;75.80
23147;DHT22;11742;53.532;-1.478;2023-05-08T07:09:34;17.80;75.80
23147;DHT22;11742;53.532;-1.478;2023-05-08T07:12:18;17.80;75.80
23147;DHT22;11742;53.532;-1.478;2023-05-08T07:15:03;17.80;75.90
23147;DHT22;11742;53.532;-1.478;2023-05-08T07:17:47;17.80;76.20
23147;DHT22;11742;53.532;-1.478;2023-05-08T07:20:31;17.80;76.10
23147;DHT22;11742;53.532;-1.478;2023-05-08T07:23:15;17.90;76.30
23147;DHT22;11742;53.532;-1.478;2023-05-08T07:25:59;17.90;76.20
23147;DHT22;11742;53.532;-1.478;2023-05-08T07:28:43;17.80;76.10
23147;DHT22;11742;53.532;-1.478;2023-05-08T07:31:28;17.80;76.10
23147;DHT22;11742;53.532;-1.478;2023-05-08T07:34:12;17.80;76.20
23147;DHT22;11742;53.532;-1.478;2023-05-08T07:36:56;17.80;76.20
23147;DHT22;11742;53.532;-1.478;2023-05-08T07:39:40;17.80;76.20
23147;DHT22;11742;53.532;-1.478;2023-05-08T07:42:25;17.80;76.30
23147;DHT22;11742;53.532;-1.478;2023-05-08T07:45:09;17.80;76.50
23147;DHT22;11742;53.532;-1.478;2023-05-08T07:47:55;17.90;76.70
23147;DHT22;11742;53.532;-1.478;2023-05-08T07:50:39;17.80;76.60
23147;DHT22;11742;53.532;-1.478;2023-05-08T07:53:23;17.80;76.60
23147;DHT22;11742;53.532;-1.478;2023-05-08T07:56:08;17.80;76.60
23147;DHT22;11742;53.532;-1.478;2023-05-08T07:58:52;17.80;76.40
23147;DHT22;11742;53.532;-1.478;2023-05-08T08:01:36;17.80;76.60
23147;DHT22;11742;53.532;-1.478;2023-05-08T08:04:21;17.80;76.40
23147;DHT22;11742;53.532;-1.478;2023-05-08T08:07:05;17.80;76.60
23147;DHT22;11742;53.532;-1.478;2023-05-08T08:09:49;17.80;76.60
23147;DHT22;11742;53.532;-1.478;2023-05-08T08:12:34;17.80;76.70
23147;DHT22;11742;53.532;-1.478;2023-05-08T08:15:18;17.80;76.80
23147;DHT22;11742;53.532;-1.478;2023-05-08T08:18:02;17.80;76.80
23147;DHT22;11742;53.532;-1.478;2023-05-08T08:20:46;17.80;76.80
23147;DHT22;11742;53.532;-1.478;2023-05-08T08:23:31;17.80;77.10
23147;DHT22;11742;53.532;-1.478;2023-05-08T08:26:15;17.70;77.20
23147;DHT22;11742;53.532;-1.478;2023-05-08T08:29:00;17.80;77.10
23147;DHT22;11742;53.532;-1.478;2023-05-08T08:31:44;17.80;77.30
23147;DHT22;11742;53.532;-1.478;2023-05-08T08:34:29;17.70;77.50
23147;DHT22;11742;53.532;-1.478;2023-05-08T08:37:13;17.70;77.50
23147;DHT22;11742;53.532;-1.478;2023-05-08T08:39:57;17.70;77.80
23147;DHT22;11742;53.532;-1.478;2023-05-08T08:42:42;17.70;77.60
23147;DHT22;11742;53.532;-1.478;2023-05-08T08:45:26;17.70;77.80
23147;DHT22;11742;53.532;-1.478;2023-05-08T08:48:11;17.70;77.70
23147;DHT22;11742;53.532;-1.478;2023-05-08T08:50:57;17.70;77.80
23147;DHT22;11742;53.532;-1.478;2023-05-08T08:53:43;17.70;78.10
23147;DHT22;11742;53.532;-1.478;2023-05-08T08:56:29;17.70;78.00
23147;DHT22;11742;53.532;-1.478;2023-05-08T08:59:14;17.70;77.80
23147;DHT22;11742;53.532;-1.478;2023-05-08T09:02:00;17.70;77.70
23147;DHT22;11742;53.532;-1.478;2023-05-08T09:04:48;17.70;77.80
23147;DHT22;11742;53.532;-1.478;2023-05-08T09:07:32;17.70;77.80
23147;DHT22;11742;53.532;-1.478;2023-05-08T09:10:17;17.70;77.80
23147;DHT22;11742;53.532;-1.478;2023-05-08T09:13:04;17.70;77.90
23147;DHT22;11742;53.532;-1.478;2023-05-08T09:15:48;17.70;78.00
23147;DHT22;11742;53.532;-1.478;2023-05-08T09:18:33;17.70;78.00
23147;DHT22;11742;53.532;-1.478;2023-05-08T09:21:17;17.70;78.10
23147;DHT22;11742;53.532;-1.478;2023-05-08T09:24:03;17.70;78.00
23147;DHT22;11742;53.532;-1.478;2023-05-08T09:26:47;17.70;78.20
23147;DHT22;11742;53.532;-1.478;2023-05-08T09:29:32;17.70;78.40
23147;DHT22;11742;53.532;-1.478;2023-05-08T09:32:16;17.70;78.50
23147;DHT22;11742;53.532;-1.478;2023-05-08T09:35:01;17.70;78.30
23147;DHT22;11742;53.532;-1.478;2023-05-08T09:37:46;17.70;78.50
23147;DHT22;11742;53.532;-1.478;2023-05-08T09:40:30;17.70;78.50
23147;DHT22;11742;53.532;-1.478;2023-05-08T09:43:15;17.70;78.70
23147;DHT22;11742;53.532;-1.478;2023-05-08T09:49:05;17.70;79.00
23147;DHT22;11742;53.532;-1.478;2023-05-08T09:51:50;17.70;79.10
23147;DHT22;11742;53.532;-1.478;2023-05-08T09:54:34;17.70;79.30
23147;DHT22;11742;53.532;-1.478;2023-05-08T09:57:18;17.70;79.60
23147;DHT22;11742;53.532;-1.478;2023-05-08T10:00:04;17.70;79.80
23147;DHT22;11742;53.532;-1.478;2023-05-08T10:02:59;17.70;79.60
23147;DHT22;11742;53.532;-1.478;2023-05-08T10:05:43;17.80;79.70
23147;DHT22;11742;53.532;-1.478;2023-05-08T10:08:30;17.70;79.60
23147;DHT22;11742;53.532;-1.478;2023-05-08T10:11:15;17.80;79.90
23147;DHT22;11742;53.532;-1.478;2023-05-08T10:14:00;17.80;79.70
23147;DHT22;11742;53.532;-1.478;2023-05-08T10:16:45;17.80;79.60
23147;DHT22;11742;53.532;-1.478;2023-05-08T10:19:31;17.80;79.90
23147;DHT22;11742;53.532;-1.478;2023-05-08T10:22:15;17.80;80.00
23147;DHT22;11742;53.532;-1.478;2023-05-08T10:25:01;17.80;80.00
23147;DHT22;11742;53.532;-1.478;2023-05-08T10:27:46;17.80;80.20
23147;DHT22;11742;53.532;-1.478;2023-05-08T10:30:31;17.80;80.40
23147;DHT22;11742;53.532;-1.478;2023-05-08T10:33:19;17.90;80.60
23147;DHT22;11742;53.532;-1.478;2023-05-08T10:36:04;17.80;80.60
23147;DHT22;11742;53.532;-1.478;2023-05-08T10:38:48;17.90;81.00
23147;DHT22;11742;53.532;-1.478;2023-05-08T10:41:34;17.90;81.10
23147;DHT22;11742;53.532;-1.478;2023-05-08T10:44:18;17.90;81.40
23147;DHT22;11742;53.532;-1.478;2023-05-08T10:47:26;17.90;81.70
23147;DHT22;11742;53.532;-1.478;2023-05-08T10:53:01;17.90;81.80
23147;DHT22;11742;53.532;-1.478;2023-05-08T10:55:49;18.00;82.10
23147;DHT22;11742;53.532;-1.478;2023-05-08T10:58:36;18.00;82.30
23147;DHT22;11742;53.532;-1.478;2023-05-08T11:01:24;18.00;82.50
23147;DHT22;11742;53.532;-1.478;2023-05-08T11:04:18;18.00;83.00
23147;DHT22;11742;53.532;-1.478;2023-05-08T11:07:04;18.00;83.20
23147;DHT22;11742;53.532;-1.478;2023-05-08T11:09:48;18.00;83.30
23147;DHT22;11742;53.532;-1.478;2023-05-08T11:12:32;18.10;83.20
23147;DHT22;11742;53.532;-1.478;2023-05-08T11:15:19;18.00;83.30
23147;DHT22;11742;53.532;-1.478;2023-05-08T11:18:17;18.10;83.70
23147;DHT22;11742;53.532;-1.478;2023-05-08T11:21:02;18.10;84.00
23147;DHT22;11742;53.532;-1.478;2023-05-08T11:23:54;18.10;83.90
23147;DHT22;11742;53.532;-1.478;2023-05-08T11:26:38;18.10;83.90
23147;DHT22;11742;53.532;-1.478;2023-05-08T11:29:23;18.20;84.20
23147;DHT22;11742;53.532;-1.478;2023-05-08T11:32:07;18.20;84.20
23147;DHT22;11742;53.532;-1.478;2023-05-08T11:34:52;18.20;84.40
23147;DHT22;11742;53.532;-1.478;2023-05-08T11:37:36;18.20;84.30
23147;DHT22;11742;53.532;-1.478;2023-05-08T11:46:20;18.20;83.20
23147;DHT22;11742;53.532;-1.478;2023-05-08T11:49:09;18.20;83.10
23147;DHT22;11742;53.532;-1.478;2023-05-08T11:51:53;18.30;82.80
23147;DHT22;11742;53.532;-1.478;2023-05-08T11:54:41;18.30;82.70
23147;DHT22;11742;53.532;-1.478;2023-05-08T11:57:25;18.30;82.60
23147;DHT22;11742;53.532;-1.478;2023-05-08T12:00:10;18.30;82.50
23147;DHT22;11742;53.532;-1.478;2023-05-08T12:02:54;18.30;82.20
23147;DHT22;11742;53.532;-1.478;2023-05-08T12:05:39;18.30;82.00
23147;DHT22;11742;53.532;-1.478;2023-05-08T12:08:24;18.40;82.30
23147;DHT22;11742;53.532;-1.478;2023-05-08T12:11:08;18.30;82.20
23147;DHT22;11742;53.532;-1.478;2023-05-08T12:13:55;18.30;82.30
23147;DHT22;11742;53.532;-1.478;2023-05-08T12:16:40;18.40;82.50
23147;DHT22;11742;53.532;-1.478;2023-05-08T12:19:24;18.30;82.40
23147;DHT22;11742;53.532;-1.478;2023-05-08T12:22:08;18.40;82.60
23147;DHT22;11742;53.532;-1.478;2023-05-08T12:24:53;18.30;82.60
23147;DHT22;11742;53.532;-1.478;2023-05-08T12:27:37;18.30;82.70
23147;DHT22;11742;53.532;-1.478;2023-05-08T12:30:22;18.30;82.60
23147;DHT22;11742;53.532;-1.478;2023-05-08T12:33:06;18.40;82.90
23147;DHT22;11742;53.532;-1.478;2023-05-08T12:35:51;18.40;82.70
23147;DHT22;11742;53.532;-1.478;2023-05-08T12:38:35;18.40;82.90
23147;DHT22;11742;53.532;-1.478;2023-05-08T12:41:22;18.40;82.80
23147;DHT22;11742;53.532;-1.478;2023-05-08T12:44:15;18.40;83.00
23147;DHT22;11742;53.532;-1.478;2023-05-08T12:46:59;18.40;82.90
23147;DHT22;11742;53.532;-1.478;2023-05-08T12:49:43;18.40;82.70
23147;DHT22;11742;53.532;-1.478;2023-05-08T12:52:27;18.40;82.80
23147;DHT22;11742;53.532;-1.478;2023-05-08T12:55:25;18.40;84.70
23147;DHT22;11742;53.532;-1.478;2023-05-08T12:58:10;18.40;86.00
23147;DHT22;11742;53.532;-1.478;2023-05-08T13:01:05;18.40;84.30
23147;DHT22;11742;53.532;-1.478;2023-05-08T13:03:51;18.40;83.90
23147;DHT22;11742;53.532;-1.478;2023-05-08T13:06:36;18.40;83.60
23147;DHT22;11742;53.532;-1.478;2023-05-08T13:09:20;18.40;83.60
23147;DHT22;11742;53.532;-1.478;2023-05-08T13:12:05;18.40;84.30
23147;DHT22;11742;53.532;-1.478;2023-05-08T13:14:49;18.40;83.40
23147;DHT22;11742;53.532;-1.478;2023-05-08T13:17:34;18.40;83.50
23147;DHT22;11742;53.532;-1.478;2023-05-08T13:20:18;18.40;83.50
23147;DHT22;11742;53.532;-1.478;2023-05-08T13:23:02;18.50;83.80
23147;DHT22;11742;53.532;-1.478;2023-05-08T13:25:47;18.50;83.90
23147;DHT22;11742;53.532;-1.478;2023-05-08T13:28:31;18.50;83.90
23147;DHT22;11742;53.532;-1.478;2023-05-08T13:31:15;18.50;84.00
23147;DHT22;11742;53.532;-1.478;2023-05-08T13:33:59;18.50;83.90
23147;DHT22;11742;53.532;-1.478;2023-05-08T13:36:43;18.50;83.90
23147;DHT22;11742;53.532;-1.478;2023-05-08T13:39:28;18.50;83.90
23147;DHT22;11742;53.532;-1.478;2023-05-08T13:42:15;18.50;84.20
23147;DHT22;11742;53.532;-1.478;2023-05-08T13:44:59;18.50;84.20
23147;DHT22;11742;53.532;-1.478;2023-05-08T13:47:44;18.50;84.10
23147;DHT22;11742;53.532;-1.478;2023-05-08T13:50:28;18.60;84.20
23147;DHT22;11742;53.532;-1.478;2023-05-08T13:53:13;18.60;84.30
23147;DHT22;11742;53.532;-1.478;2023-05-08T13:55:57;18.60;84.10
23147;DHT22;11742;53.532;-1.478;2023-05-08T13:58:41;18.60;84.80
23147;DHT22;11742;53.532;-1.478;2023-05-08T14:01:25;18.60;84.60
23147;DHT22;11742;53.532;-1.478;2023-05-08T14:04:10;18.60;84.50
23147;DHT22;11742;53.532;-1.478;2023-05-08T14:06:55;18.70;84.60
23147;DHT22;11742;53.532;-1.478;2023-05-08T14:09:39;18.70;84.50
23147;DHT22;11742;53.532;-1.478;2023-05-08T14:12:23;18.70;84.80
23147;DHT22;11742;53.532;-1.478;2023-05-08T14:15:07;18.70;84.60
23147;DHT22;11742;53.532;-1.478;2023-05-08T14:17:52;18.70;84.80
23147;DHT22;11742;53.532;-1.478;2023-05-08T14:20:36;18.80;84.80
23147;DHT22;11742;53.532;-1.478;2023-05-08T14:23:20;18.80;84.70
23147;DHT22;11742;53.532;-1.478;2023-05-08T14:26:05;18.80;85.10
23147;DHT22;11742;53.532;-1.478;2023-05-08T14:28:49;18.80;85.00
23147;DHT22;11742;53.532;-1.478;2023-05-08T14:31:33;18.80;85.10
23147;DHT22;11742;53.532;-1.478;2023-05-08T14:34:17;18.80;84.80
23147;DHT22;11742;53.532;-1.478;2023-05-08T14:37:02;18.90;84.80
23147;DHT22;11742;53.532;-1.478;2023-05-08T14:39:46;18.90;85.20
23147;DHT22;11742;53.532;-1.478;2023-05-08T14:42:30;18.90;85.10
23147;DHT22;11742;53.532;-1.478;2023-05-08T14:45:16;18.90;85.20
23147;DHT22;11742;53.532;-1.478;2023-05-08T14:48:00;18.90;85.10
23147;DHT22;11742;53.532;-1.478;2023-05-08T14:50:45;19.00;85.20
23147;DHT22;11742;53.532;-1.478;2023-05-08T14:53:29;19.00;85.00
23147;DHT22;11742;53.532;-1.478;2023-05-08T14:56:13;19.00;85.00
23147;DHT22;11742;53.532;-1.478;2023-05-08T14:58:57;19.00;84.90
23147;DHT22;11742;53.532;-1.478;2023-05-08T15:01:42;19.00;84.80
23147;DHT22;11742;53.532;-1.478;2023-05-08T15:04:26;19.00;84.60
23147;DHT22;11742;53.532;-1.478;2023-05-08T15:07:11;19.10;84.50
23147;DHT22;11742;53.532;-1.478;2023-05-08T15:09:55;19.10;84.40
23147;DHT22;11742;53.532;-1.478;2023-05-08T15:12:39;19.10;84.50
23147;DHT22;11742;53.532;-1.478;2023-05-08T15:15:23;19.10;84.40
23147;DHT22;11742;53.532;-1.478;2023-05-08T15:18:07;19.10;84.20
23147;DHT22;11742;53.532;-1.478;2023-05-08T15:20:51;19.10;84.10
23147;DHT22;11742;53.532;-1.478;2023-05-08T15:23:36;19.10;83.90
23147;DHT22;11742;53.532;-1.478;2023-05-08T15:26:20;19.10;84.00
23147;DHT22;11742;53.532;-1.478;2023-05-08T15:29:04;19.20;83.90
23147;DHT22;11742;53.532;-1.478;2023-05-08T15:31:49;19.20;84.00
23147;DHT22;11742;53.532;-1.478;2023-05-08T15:34:34;19.20;83.80
23147;DHT22;11742;53.532;-1.478;2023-05-08T15:37:18;19.20;83.70
23147;DHT22;11742;53.532;-1.478;2023-05-08T15:40:03;19.20;83.70
23147;DHT22;11742;53.532;-1.478;2023-05-08T15:42:47;19.20;83.70
23147;DHT22;11742;53.532;-1.478;2023-05-08T15:45:31;19.20;83.50
23147;DHT22;11742;53.532;-1.478;2023-05-08T15:48:15;19.20;83.50
23147;DHT22;11742;53.532;-1.478;2023-05-08T15:51:00;19.20;83.70
23147;DHT22;11742;53.532;-1.478;2023-05-08T15:53:44;19.20;84.00
23147;DHT22;11742;53.532;-1.478;2023-05-08T15:56:28;19.20;83.90
23147;DHT22;11742;53.532;-1.478;2023-05-08T15:59:12;19.30;83.80
23147;DHT22;11742;53.532;-1.478;2023-05-08T16:01:57;19.30;83.90
23147;DHT22;11742;53.532;-1.478;2023-05-08T16:04:41;19.30;84.00
23147;DHT22;11742;53.532;-1.478;2023-05-08T16:07:25;19.30;83.80
23147;DHT22;11742;53.532;-1.478;2023-05-08T16:10:10;19.30;83.70
23147;DHT22;11742;53.532;-1.478;2023-05-08T16:12:54;19.30;83.70
23147;DHT22;11742;53.532;-1.478;2023-05-08T16:15:38;19.30;83.70
23147;DHT22;11742;53.532;-1.478;2023-05-08T16:18:22;19.20;84.10
23147;DHT22;11742;53.532;-1.478;2023-05-08T16:21:07;19.30;84.00
23147;DHT22;11742;53.532;-1.478;2023-05-08T16:23:51;19.30;84.00
23147;DHT22;11742;53.532;-1.478;2023-05-08T16:26:36;19.30;83.80
23147;DHT22;11742;53.532;-1.478;2023-05-08T16:29:20;19.30;83.80
23147;DHT22;11742;53.532;-1.478;2023-05-08T16:32:04;19.20;83.70
23147;DHT22;11742;53.532;-1.478;2023-05-08T16:34:49;19.30;83.60
23147;DHT22;11742;53.532;-1.478;2023-05-08T16:37:33;19.30;83.70
23147;DHT22;11742;53.532;-1.478;2023-05-08T16:40:17;19.30;83.60
23147;DHT22;11742;53.532;-1.478;2023-05-08T16:43:01;19.30;83.70
23147;DHT22;11742;53.532;-1.478;2023-05-08T16:45:48;19.20;83.70
23147;DHT22;11742;53.532;-1.478;2023-05-08T16:48:33;19.30;83.90
23147;DHT22;11742;53.532;-1.478;2023-05-08T16:51:17;19.30;83.80
23147;DHT22;11742;53.532;-1.478;2023-05-08T16:54:01;19.30;83.70
23147;DHT22;11742;53.532;-1.478;2023-05-08T16:56:45;19.30;83.90
23147;DHT22;11742;53.532;-1.478;2023-05-08T16:59:29;19.30;83.80
23147;DHT22;11742;53.532;-1.478;2023-05-08T17:02:14;19.30;83.70
23147;DHT22;11742;53.532;-1.478;2023-05-08T17:05:01;19.20;83.50
23147;DHT22;11742;53.532;-1.478;2023-05-08T17:07:46;19.20;83.60
23147;DHT22;11742;53.532;-1.478;2023-05-08T17:10:30;19.30;83.70
23147;DHT22;11742;53.532;-1.478;2023-05-08T17:13:14;19.30;83.60
23147;DHT22;11742;53.532;-1.478;2023-05-08T17:15:59;19.20;83.60
23147;DHT22;11742;53.532;-1.478;2023-05-08T17:18:43;19.30;83.70
23147;DHT22;11742;53.532;-1.478;2023-05-08T17:21:28;19.30;83.50
23147;DHT22;11742;53.532;-1.478;2023-05-08T17:24:14;19.30;83.60
23147;DHT22;11742;53.532;-1.478;2023-05-08T17:26:58;19.20;83.70
23147;DHT22;11742;53.532;-1.478;2023-05-08T17:29:42;19.30;83.80
23147;DHT22;11742;53.532;-1.478;2023-05-08T17:32:27;19.20;83.80
23147;DHT22;11742;53.532;-1.478;2023-05-08T17:35:11;19.20;83.70
23147;DHT22;11742;53.532;-1.478;2023-05-08T17:37:55;19.20;83.70
23147;DHT22;11742;53.532;-1.478;2023-05-08T17:40:39;19.20;83.90
23147;DHT22;11742;53.532;-1.478;2023-05-08T17:43:23;19.20;84.00
23147;DHT22;11742;53.532;-1.478;2023-05-08T17:46:11;19.20;84.00
23147;DHT22;11742;53.532;-1.478;2023-05-08T17:48:55;19.20;84.00
23147;DHT22;11742;53.532;-1.478;2023-05-08T17:51:39;19.20;84.00
23147;DHT22;11742;53.532;-1.478;2023-05-08T17:54:24;19.20;84.00
23147;DHT22;11742;53.532;-1.478;2023-05-08T17:57:08;19.20;83.90
23147;DHT22;11742;53.532;-1.478;2023-05-08T17:59:52;19.20;83.90
23147;DHT22;11742;53.532;-1.478;2023-05-08T18:02:36;19.20;83.90